Time;durP1;ratioP1;P1;durP2;ratioP2;P2;SDS_P1;SDS_P2;PMS_P1;PMS_P2;Temp;Humidity;BMP_temperature;BMP_pressure;BME280_temperature;BME280_humidity;BME280_pressure;Samples;Min_cycle;Max_cycle;Signal;HPM_P1;HPM_P2
2022/06/18 00:00:23;;;;;;;2.83;0.95;;;21.40;68.50;;;;;;5010815;28;20064;-78
2022/06/18 00:02:49;;;;;;;4.15;1.40;;;21.40;68.80;;;;;;5010534;28;20048;-78
2022/06/18 00:05:17;;;;;;;2.53;0.95;;;21.40;68.50;;;;;;5009267;28;20018;-78
2022/06/18 00:07:56;;;;;;;3.40;1.45;;;21.40;68.60;;;;;;5010132;28;20521;-78
2022/06/18 00:10:25;;;;;;;3.67;1.33;;;21.40;68.90;;;;;;5025816;28;20095;-78
2022/06/18 00:15:37;;;;;;;1.58;0.80;;;21.30;68.80;;;;;;5010255;28;20037;-77
2022/06/18 00:18:05;;;;;;;1.15;0.90;;;21.40;68.80;;;;;;5010525;28;20034;-79
2022/06/18 00:20:34;;;;;;;3.03;0.90;;;21.30;68.70;;;;;;4990527;28;20030;-78
2022/06/18 00:23:02;;;;;;;2.20;0.80;;;21.30;68.70;;;;;;4990402;28;20057;-78
2022/06/18 00:25:38;;;;;;;2.95;1.10;;;21.30;69.00;;;;;;4990074;28;20045;-78
2022/06/18 00:28:10;;;;;;;4.55;0.90;;;21.30;69.40;;;;;;4991156;28;20077;-79
2022/06/18 00:30:36;;;;;;;2.70;1.15;;;21.30;69.30;;;;;;4990006;28;20034;-78
2022/06/18 00:33:02;;;;;;;3.40;1.00;;;21.20;69.30;;;;;;5005555;28;20034;-79
2022/06/18 00:35:28;;;;;;;1.23;0.77;;;21.20;69.20;;;;;;4990196;28;20026;-78
2022/06/18 00:37:58;;;;;;;3.30;0.80;;;21.20;69.30;;;;;;4990885;28;20031;-78
2022/06/18 00:40:29;;;;;;;2.42;1.05;;;21.10;69.60;;;;;;4990782;28;20033;-78
2022/06/18 00:43:01;;;;;;;3.70;0.88;;;21.10;69.80;;;;;;4990229;28;20030;-79
2022/06/18 00:45:29;;;;;;;3.88;1.15;;;21.10;69.80;;;;;;5021429;28;20947;-79
2022/06/18 00:48:06;;;;;;;2.70;1.20;;;21.10;70.00;;;;;;5022310;28;20042;-78
2022/06/18 00:50:48;;;;;;;2.13;1.00;;;21.10;70.30;;;;;;4990658;28;20038;-78
2022/06/18 00:53:28;;;;;;;2.25;0.82;;;21.00;70.40;;;;;;5011651;28;20074;-79
2022/06/18 00:56:15;;;;;;;2.03;0.90;;;21.00;70.50;;;;;;5013541;28;20037;-78
2022/06/18 00:59:06;;;;;;;5.13;0.90;;;21.00;70.50;;;;;;5014351;28;20526;-78
2022/06/18 01:01:35;;;;;;;2.47;0.90;;;21.00;70.60;;;;;;5014058;28;20148;-79
2022/06/18 01:04:00;;;;;;;4.78;1.00;;;21.00;70.90;;;;;;5012729;28;20124;-79
2022/06/18 01:06:30;;;;;;;2.05;1.05;;;20.90;71.10;;;;;;5013262;28;20129;-78
2022/06/18 01:09:12;;;;;;;3.40;1.52;;;20.90;71.10;;;;;;5013024;28;20026;-78
2022/06/18 01:11:40;;;;;;;3.80;1.02;;;20.90;71.50;;;;;;5013859;28;20029;-78
2022/06/18 01:14:09;;;;;;;2.85;1.27;;;20.90;71.40;;;;;;5014096;28;20044;-78
2022/06/18 01:16:34;;;;;;;0.88;0.70;;;20.90;71.20;;;;;;5011354;28;20084;-78
2022/06/18 01:19:02;;;;;;;3.08;0.88;;;20.80;71.30;;;;;;5014250;28;20062;-78
2022/06/18 01:21:44;;;;;;;4.68;0.75;;;20.80;71.20;;;;;;5013436;28;20030;-79
2022/06/18 01:24:21;;;;;;;1.38;0.63;;;20.80;71.50;;;;;;5013721;28;20080;-79
2022/06/18 01:26:51;;;;;;;3.38;0.88;;;20.80;71.60;;;;;;5013079;28;20057;-79
2022/06/18 01:29:18;;;;;;;1.50;0.80;;;20.80;71.70;;;;;;5013687;28;20028;-78
2022/06/18 01:31:46;;;;;;;2.38;0.82;;;20.80;71.70;;;;;;5013078;28;20034;-78
2022/06/18 01:34:13;;;;;;;4.47;0.68;;;20.70;71.80;;;;;;5011482;28;20147;-79
2022/06/18 01:36:41;;;;;;;1.35;0.60;;;20.70;71.90;;;;;;5013052;28;20378;-79
2022/06/18 01:39:13;;;;;;;1.85;0.68;;;20.70;72.00;;;;;;5013510;28;20034;-78
2022/06/18 01:41:53;;;;;;;2.53;0.77;;;20.70;72.00;;;;;;5013191;28;20029;-78
2022/06/18 01:44:29;;;;;;;1.50;0.60;;;20.70;72.20;;;;;;5013441;28;20034;-78
2022/06/18 01:47:01;;;;;;;3.33;0.63;;;20.60;72.30;;;;;;5011607;28;20395;-79
2022/06/18 01:49:34;;;;;;;1.75;0.52;;;20.60;72.20;;;;;;5013021;28;20065;-79
2022/06/18 01:52:02;;;;;;;3.58;1.23;;;20.60;72.10;;;;;;5012918;28;20030;-78
2022/06/18 01:54:34;;;;;;;4.05;0.55;;;20.50;72.00;;;;;;5012836;28;20034;-79
2022/06/18 01:57:05;;;;;;;0.95;0.60;;;20.50;72.20;;;;;;5012497;28;20022;-79
2022/06/18 01:59:35;;;;;;;2.95;0.57;;;20.50;72.10;;;;;;5013006;28;20050;-78
2022/06/18 02:02:03;;;;;;;1.73;0.80;;;20.50;72.30;;;;;;5011242;28;20125;-78
2022/06/18 02:04:29;;;;;;;1.00;0.90;;;20.50;72.50;;;;;;5011663;28;20040;-78
2022/06/18 02:06:54;;;;;;;2.28;0.70;;;20.50;72.60;;;;;;5011759;28;20113;-79
2022/06/18 02:09:36;;;;;;;1.90;0.60;;;20.40;72.80;;;;;;5012663;28;20109;-79
2022/06/18 02:12:07;;;;;;;1.67;0.70;;;20.40;72.80;;;;;;5012421;28;20026;-79
2022/06/18 02:14:34;;;;;;;3.55;0.77;;;20.40;73.00;;;;;;5012576;28;20037;-79
2022/06/18 02:17:03;;;;;;;4.82;0.57;;;20.40;73.30;;;;;;5012149;28;20157;-79
2022/06/18 02:19:29;;;;;;;2.45;0.63;;;20.30;73.30;;;;;;5012534;28;20521;-79
2022/06/18 02:21:57;;;;;;;3.78;0.60;;;20.30;73.50;;;;;;5012512;28;20033;-78
2022/06/18 02:24:23;;;;;;;4.38;1.05;;;20.30;73.60;;;;;;5010924;28;20099;-79
2022/06/18 02:26:48;;;;;;;1.67;0.93;;;20.20;73.70;;;;;;5011536;28;20026;-79
2022/06/18 02:29:27;;;;;;;4.72;0.98;;;20.20;73.60;;;;;;5012324;28;20026;-78
2022/06/18 02:31:54;;;;;;;5.47;0.60;;;20.20;73.50;;;;;;5012183;28;20026;-77
2022/06/18 02:34:24;;;;;;;6.13;0.80;;;20.20;73.50;;;;;;5011772;28;20125;-77
2022/06/18 02:36:49;;;;;;;1.88;0.55;;;20.10;73.40;;;;;;5010445;28;20022;-77
2022/06/18 02:39:40;;;;;;;2.72;0.93;;;20.00;74.80;;;;;;5012603;28;20202;-77
2022/06/18 02:42:09;;;;;;;1.58;0.60;;;20.00;73.90;;;;;;5012405;28;20026;-78
2022/06/18 02:44:37;;;;;;;1.80;0.80;;;20.00;74.10;;;;;;5012534;28;20070;-76
2022/06/18 02:47:06;;;;;;;2.58;0.75;;;19.90;73.80;;;;;;5011991;28;20061;-76
2022/06/18 02:49:41;;;;;;;1.17;0.68;;;19.90;73.70;;;;;;5012466;28;20026;-77
2022/06/18 02:52:07;;;;;;;0.93;0.68;;;20.00;74.00;;;;;;5011896;28;20037;-78
2022/06/18 02:54:33;;;;;;;3.08;0.77;;;20.00;73.90;;;;;;5012076;28;20112;-78
2022/06/18 02:57:02;;;;;;;3.88;0.50;;;20.00;73.80;;;;;;5018991;28;20109;-77
2022/06/18 02:59:28;;;;;;;2.00;1.05;;;20.00;74.00;;;;;;5031686;28;20026;-78
2022/06/18 03:01:54;;;;;;;1.55;0.60;;;19.90;74.20;;;;;;5031367;28;20029;-78
2022/06/18 03:04:19;;;;;;;1.73;0.80;;;20.00;74.20;;;;;;5031048;28;20038;-77
2022/06/18 03:06:45;;;;;;;3.28;0.63;;;20.00;74.20;;;;;;5031160;28;20025;-78
2022/06/18 03:09:11;;;;;;;1.98;0.90;;;20.00;74.30;;;;;;5030421;28;20029;-77
2022/06/18 03:14:20;;;;;;;1.92;0.80;;;20.00;74.30;;;;;;5031445;28;20083;-78
2022/06/18 03:16:46;;;;;;;1.10;0.70;;;20.00;74.20;;;;;;5030858;28;20487;-78
2022/06/18 03:19:41;;;;;;;1.48;0.60;;;20.00;74.30;;;;;;5031469;28;20274;-77
2022/06/18 03:22:12;;;;;;;1.80;0.60;;;20.00;74.50;;;;;;5030883;28;20025;-77
2022/06/18 03:24:40;;;;;;;1.55;0.60;;;20.00;74.60;;;;;;5023314;28;20029;-77
2022/06/18 03:27:06;;;;;;;2.15;0.80;;;20.00;74.50;;;;;;5010707;28;20053;-78
2022/06/18 03:29:31;;;;;;;2.90;0.77;;;20.00;74.40;;;;;;5011254;28;20069;-78
2022/06/18 03:31:57;;;;;;;1.90;0.85;;;20.00;74.50;;;;;;5011002;28;20036;-78
2022/06/18 03:34:22;;;;;;;1.42;0.77;;;20.00;74.40;;;;;;5011069;28;20461;-78
2022/06/18 03:36:48;;;;;;;1.73;1.00;;;20.00;74.40;;;;;;5010684;28;20368;-78
2022/06/18 03:39:13;;;;;;;1.42;0.70;;;20.00;74.70;;;;;;5010855;28;20037;-78
2022/06/18 03:41:39;;;;;;;1.38;0.80;;;20.00;74.90;;;;;;5010902;28;20026;-77
2022/06/18 03:44:04;;;;;;;1.15;0.60;;;20.00;74.50;;;;;;5011283;28;20122;-78
2022/06/18 03:46:30;;;;;;;1.85;0.70;;;20.10;74.40;;;;;;5010318;28;20045;-78
2022/06/18 03:49:00;;;;;;;3.58;0.70;;;20.10;74.40;;;;;;5010990;28;20057;-77
2022/06/18 03:51:26;;;;;;;0.88;0.55;;;20.10;74.40;;;;;;5010635;28;20395;-77
2022/06/18 03:53:52;;;;;;;0.63;0.45;;;20.10;74.40;;;;;;5011073;28;20034;-79
2022/06/18 03:56:21;;;;;;;1.27;0.50;;;20.10;74.30;;;;;;5009862;28;20030;-77
2022/06/18 03:58:47;;;;;;;1.00;0.60;;;20.10;74.00;;;;;;5010841;28;20044;-77
2022/06/18 04:01:15;;;;;;;3.30;1.05;;;20.10;73.70;;;;;;5010270;28;20038;-77
2022/06/18 04:03:40;;;;;;;1.10;0.50;;;20.10;73.90;;;;;;5010501;28;20450;-78
2022/06/18 04:06:09;;;;;;;2.42;0.70;;;20.10;73.70;;;;;;5010280;28;20080;-77
2022/06/18 04:08:34;;;;;;;3.85;0.75;;;20.20;73.80;;;;;;5010980;28;20037;-78
2022/06/18 04:11:00;;;;;;;1.90;0.93;;;20.20;73.70;;;;;;5010552;28;20121;-77
2022/06/18 04:13:28;;;;;;;2.22;0.80;;;20.20;73.50;;;;;;5010640;28;20466;-78
2022/06/18 04:15:54;;;;;;;0.90;0.57;;;20.20;73.50;;;;;;5025179;28;20435;-78
2022/06/18 04:18:20;;;;;;;3.80;0.57;;;20.20;73.10;;;;;;5010781;28;20040;-79
2022/06/18 04:20:45;;;;;;;1.17;0.60;;;20.30;73.10;;;;;;5010246;28;20105;-78
2022/06/18 04:23:11;;;;;;;2.08;0.63;;;20.30;73.10;;;;;;5025615;28;20056;-78
2022/06/18 04:25:37;;;;;;;1.67;0.80;;;20.30;73.60;;;;;;5009146;28;20108;-79
2022/06/18 04:28:03;;;;;;;2.10;0.82;;;20.30;73.10;;;;;;5009261;28;20641;-79
2022/06/18 04:30:32;;;;;;;2.17;0.52;;;20.30;72.50;;;;;;5010043;28;20034;-78
2022/06/18 04:32:58;;;;;;;0.98;0.40;;;20.30;72.30;;;;;;5010089;28;20026;-79
2022/06/18 04:35:23;;;;;;;0.95;0.60;;;20.40;71.90;;;;;;5009644;28;20068;-78
2022/06/18 04:37:49;;;;;;;3.17;0.57;;;20.40;71.40;;;;;;5010603;28;20065;-77
2022/06/18 04:40:18;;;;;;;2.00;0.68;;;20.40;71.30;;;;;;5010314;28;20084;-78
2022/06/18 04:42:43;;;;;;;2.50;0.57;;;20.50;71.20;;;;;;5025031;28;20080;-79
2022/06/18 04:45:10;;;;;;;2.10;0.80;;;20.60;70.80;;;;;;5010154;28;20423;-79
2022/06/18 04:47:35;;;;;;;3.38;0.50;;;20.60;70.90;;;;;;5009901;28;20056;-79
2022/06/18 04:50:02;;;;;;;1.10;0.70;;;20.70;70.60;;;;;;5010042;28;20062;-80
2022/06/18 04:52:28;;;;;;;1.55;0.70;;;20.70;70.40;;;;;;5009380;28;20030;-78
2022/06/18 04:54:53;;;;;;;1.77;0.60;;;20.80;70.30;;;;;;5010531;28;20038;-79
2022/06/18 04:57:20;;;;;;;1.08;0.70;;;20.80;69.80;;;;;;5009533;28;20033;-79
2022/06/18 04:59:46;;;;;;;1.88;0.60;;;20.90;69.60;;;;;;5010175;28;20038;-79
2022/06/18 05:02:26;;;;;;;2.63;0.85;;;20.90;68.70;;;;;;5009833;28;20029;-79
2022/06/18 05:04:54;;;;;;;1.27;0.50;;;21.00;69.10;;;;;;5010150;28;20061;-79
2022/06/18 05:07:19;;;;;;;1.02;0.55;;;21.00;69.20;;;;;;5009390;28;20104;-79
2022/06/18 05:09:45;;;;;;;1.92;0.60;;;21.10;69.20;;;;;;5009881;28;20452;-79
2022/06/18 05:12:12;;;;;;;1.67;0.70;;;21.20;69.10;;;;;;5009835;28;20120;-78
2022/06/18 05:14:38;;;;;;;0.73;0.50;;;21.20;69.00;;;;;;5025214;28;20113;-80
2022/06/18 05:17:04;;;;;;;0.68;0.52;;;21.30;68.90;;;;;;5024474;28;20038;-79
2022/06/18 05:19:32;;;;;;;2.35;0.60;;;21.30;69.00;;;;;;5010237;28;20124;-77
2022/06/18 05:21:58;;;;;;;3.92;0.65;;;21.40;68.90;;;;;;5009450;28;20057;-78
2022/06/18 05:24:25;;;;;;;0.73;0.60;;;21.50;68.30;;;;;;5009646;28;20118;-77
2022/06/18 05:26:54;;;;;;;1.45;0.80;;;21.50;68.60;;;;;;5009074;28;20046;-78
2022/06/18 05:29:20;;;;;;;4.95;0.52;;;21.60;68.10;;;;;;5009692;28;20407;-77
2022/06/18 05:31:45;;;;;;;1.60;0.50;;;21.60;68.10;;;;;;5010073;28;20030;-79
2022/06/18 05:34:11;;;;;;;0.60;0.50;;;21.70;68.20;;;;;;5009639;28;20053;-78
2022/06/18 05:36:38;;;;;;;1.13;0.60;;;21.70;68.60;;;;;;5009040;28;20049;-78
2022/06/18 05:39:05;;;;;;;1.05;0.55;;;21.80;68.10;;;;;;5013488;28;20029;-78
2022/06/18 05:41:31;;;;;;;0.93;0.50;;;21.90;67.40;;;;;;5013041;28;20632;-78
2022/06/18 05:43:57;;;;;;;3.28;0.80;;;21.90;68.30;;;;;;5013122;28;20069;-78
2022/06/18 05:46:23;;;;;;;1.13;0.60;;;21.90;67.60;;;;;;5012482;28;20364;-78
2022/06/18 05:48:48;;;;;;;6.18;0.60;;;22.00;67.10;;;;;;5013439;28;20043;-78
2022/06/18 05:51:14;;;;;;;1.73;0.73;;;22.10;67.30;;;;;;5012778;28;20025;-79
2022/06/18 05:53:39;;;;;;;0.63;0.40;;;22.20;68.00;;;;;;5013304;28;20036;-78
2022/06/18 05:56:05;;;;;;;0.77;0.47;;;22.20;67.50;;;;;;5012427;28;20030;-78
2022/06/18 05:58:30;;;;;;;1.27;0.60;;;22.30;66.70;;;;;;5013234;28;20058;-79
2022/06/18 06:00:56;;;;;;;3.50;1.02;;;22.40;65.90;;;;;;5012653;28;20044;-78
2022/06/18 06:03:23;;;;;;;1.23;0.50;;;22.40;66.20;;;;;;5014530;28;20036;-77
2022/06/18 06:05:48;;;;;;;3.42;0.60;;;22.60;65.40;;;;;;5032318;28;20030;-78
2022/06/18 06:08:15;;;;;;;1.75;0.52;;;22.60;65.80;;;;;;5032767;28;20425;-78
2022/06/18 06:13:26;;;;;;;1.02;0.40;;;22.80;64.80;;;;;;5032461;28;20041;-78
2022/06/18 06:15:53;;;;;;;1.35;0.52;;;22.90;66.00;;;;;;5030603;28;20029;-78
2022/06/18 06:18:21;;;;;;;2.95;0.68;;;23.00;65.20;;;;;;5032623;28;20446;-78
2022/06/18 06:20:50;;;;;;;1.05;0.50;;;23.10;65.40;;;;;;5032253;28;20132;-77
2022/06/18 06:23:16;;;;;;;2.80;0.60;;;23.30;64.90;;;;;;5031929;28;20258;-79
2022/06/18 06:25:43;;;;;;;2.22;0.50;;;23.40;64.80;;;;;;5031776;28;20064;-77
2022/06/18 06:28:19;;;;;;;1.35;0.60;;;23.60;64.00;;;;;;5032072;28;20125;-78
2022/06/18 06:30:45;;;;;;;1.73;0.60;;;23.80;64.60;;;;;;5032013;28;20026;-78
2022/06/18 06:33:10;;;;;;;1.88;0.70;;;23.80;64.30;;;;;;5031933;28;20052;-79
2022/06/18 06:35:36;;;;;;;1.65;0.50;;;24.00;64.20;;;;;;5031431;28;20052;-78
2022/06/18 06:38:02;;;;;;;0.95;0.57;;;24.10;64.20;;;;;;5032142;28;20033;-78
2022/06/18 06:40:30;;;;;;;3.25;0.98;;;24.20;63.50;;;;;;5031707;28;20052;-79
2022/06/18 06:42:58;;;;;;;0.90;0.50;;;24.30;63.70;;;;;;5030336;28;20037;-78
2022/06/18 06:45:30;;;;;;;5.43;0.65;;;24.30;63.20;;;;;;5029848;28;20398;-79
2022/06/18 06:47:56;;;;;;;0.40;0.30;;;24.40;63.00;;;;;;5028216;28;20018;-78
2022/06/18 06:50:24;;;;;;;2.50;0.50;;;24.50;62.80;;;;;;5011282;28;20037;-78
2022/06/18 06:52:50;;;;;;;0.98;0.50;;;24.60;62.70;;;;;;5011725;28;20475;-78
2022/06/18 06:58:10;;;;;;;1.13;0.50;;;24.90;62.80;;;;;;5012188;28;20033;-78
2022/06/18 07:00:46;;;;;;;5.57;0.77;;;25.00;62.90;;;;;;5011476;28;20038;-78
2022/06/18 07:03:18;;;;;;;3.53;0.50;;;25.20;63.30;;;;;;5011656;28;20145;-79
2022/06/18 07:05:44;;;;;;;2.63;0.50;;;25.40;62.10;;;;;;5011088;28;20057;-79
2022/06/18 07:08:10;;;;;;;5.05;0.50;;;25.60;61.50;;;;;;5011944;28;20513;-78
2022/06/18 07:10:36;;;;;;;1.05;0.45;;;25.80;61.40;;;;;;5012127;28;20030;-78
2022/06/18 07:13:02;;;;;;;0.40;0.40;;;25.90;61.10;;;;;;5011190;28;20030;-78
2022/06/18 07:15:27;;;;;;;1.08;0.40;;;26.10;60.30;;;;;;5009492;28;20554;-78
2022/06/18 07:17:52;;;;;;;1.05;0.50;;;26.20;60.30;;;;;;5011616;28;20033;-79
2022/06/18 07:20:19;;;;;;;6.25;0.55;;;26.40;59.90;;;;;;5010652;28;20395;-78
2022/06/18 07:22:45;;;;;;;1.70;0.60;;;26.60;59.10;;;;;;5011116;28;20044;-77
2022/06/18 07:25:13;;;;;;;0.77;0.60;;;26.80;58.10;;;;;;5011426;28;20034;-78
2022/06/18 07:27:39;;;;;;;0.65;0.47;;;26.90;57.20;;;;;;5011364;28;20025;-77
2022/06/18 07:30:08;;;;;;;0.50;0.32;;;27.10;58.50;;;;;;5011649;28;20025;-77
2022/06/18 07:32:34;;;;;;;4.95;0.65;;;27.20;57.90;;;;;;5010934;28;20368;-78
2022/06/18 07:35:00;;;;;;;1.05;0.60;;;27.50;57.60;;;;;;5009725;28;20426;-78
2022/06/18 07:37:28;;;;;;;2.28;0.50;;;27.60;56.00;;;;;;5010281;28;20034;-78
2022/06/18 07:39:54;;;;;;;1.38;0.60;;;27.80;56.00;;;;;;5011485;28;20040;-77
2022/06/18 07:42:21;;;;;;;0.80;0.40;;;27.90;55.80;;;;;;5010788;28;20026;-77
2022/06/18 07:44:47;;;;;;;3.75;0.50;;;28.10;55.10;;;;;;5011059;28;20045;-78
2022/06/18 07:47:15;;;;;;;0.50;0.47;;;28.20;55.30;;;;;;5010283;28;20041;-77
2022/06/18 07:49:42;;;;;;;1.05;0.40;;;28.40;55.20;;;;;;5011085;28;20048;-77
2022/06/18 07:52:07;;;;;;;1.77;0.75;;;28.50;54.00;;;;;;5010551;28;20026;-77
2022/06/18 07:54:33;;;;;;;2.15;0.40;;;28.60;54.10;;;;;;5011118;28;20116;-78
2022/06/18 07:56:58;;;;;;;0.70;0.50;;;28.80;53.50;;;;;;5009848;28;20025;-77
2022/06/18 07:59:24;;;;;;;0.73;0.40;;;28.90;53.00;;;;;;5010796;28;20065;-78
2022/06/18 08:01:49;;;;;;;3.45;0.40;;;29.00;53.00;;;;;;5010850;28;20510;-77
2022/06/18 08:04:15;;;;;;;2.13;0.32;;;29.00;52.00;;;;;;5010625;28;20048;-77
2022/06/18 08:06:41;;;;;;;3.92;0.40;;;29.00;52.70;;;;;;5025167;28;20387;-77
2022/06/18 08:09:07;;;;;;;4.82;0.52;;;29.00;52.70;;;;;;5010776;28;20388;-76
2022/06/18 08:11:35;;;;;;;0.63;0.40;;;29.10;52.60;;;;;;5010149;28;20737;-78
2022/06/18 08:14:01;;;;;;;1.58;0.30;;;29.10;52.00;;;;;;5010455;28;20091;-78
2022/06/18 08:16:27;;;;;;;1.67;0.50;;;29.10;52.60;;;;;;5009796;28;20496;-77
2022/06/18 08:18:53;;;;;;;1.15;0.50;;;29.20;53.30;;;;;;5010499;28;20034;-78
2022/06/18 08:21:35;;;;;;;1.60;0.60;;;29.30;52.40;;;;;;5010131;28;20172;-77
2022/06/18 08:24:09;;;;;;;2.92;0.40;;;29.40;52.00;;;;;;5010519;28;20038;-77
2022/06/18 08:26:36;;;;;;;1.17;0.57;;;29.50;52.00;;;;;;5009757;28;20034;-77
2022/06/18 08:29:04;;;;;;;1.63;0.52;;;29.50;52.30;;;;;;5010580;28;20029;-77
2022/06/18 08:31:29;;;;;;;0.70;0.40;;;29.70;52.60;;;;;;5010019;28;20120;-78
2022/06/18 08:33:56;;;;;;;1.17;0.50;;;29.70;52.20;;;;;;5009083;28;20022;-78
2022/06/18 08:36:21;;;;;;;2.47;0.40;;;29.90;52.70;;;;;;5009616;28;20033;-77
2022/06/18 08:38:48;;;;;;;1.40;0.47;;;29.90;52.00;;;;;;5010413;28;20056;-77
2022/06/18 08:41:26;;;;;;;1.63;0.43;;;30.00;51.50;;;;;;5010145;28;20026;-78
2022/06/18 08:44:11;;;;;;;0.82;0.47;;;30.10;52.10;;;;;;5010461;28;20116;-77
2022/06/18 08:47:15;;;;;;;2.03;0.40;;;30.10;51.90;;;;;;5009733;28;20037;-77
2022/06/18 08:50:20;;;;;;;1.33;0.50;;;30.20;54.10;;;;;;5010347;28;20056;-77
2022/06/18 08:53:11;;;;;;;1.35;0.63;;;30.30;51.60;;;;;;5010050;28;20549;-78
2022/06/18 08:55:53;;;;;;;4.20;0.70;;;30.50;51.30;;;;;;5009044;28;20079;-78
2022/06/18 08:58:33;;;;;;;2.72;0.40;;;30.60;52.80;;;;;;5010547;28;20034;-78
2022/06/18 09:01:10;;;;;;;0.70;0.55;;;30.90;51.50;;;;;;5009810;28;20045;-77
2022/06/18 09:03:52;;;;;;;2.83;0.65;;;31.10;51.40;;;;;;5010101;28;20498;-77
2022/06/18 09:06:46;;;;;;;1.98;0.50;;;31.20;51.80;;;;;;5009169;28;20042;-77
2022/06/18 09:09:59;;;;;;;7.57;0.50;;;31.30;50.70;;;;;;5025318;28;20030;-77
2022/06/18 09:12:28;;;;;;;3.53;0.30;;;31.40;51.50;;;;;;5027785;28;20040;-78
2022/06/18 09:15:06;;;;;;;0.98;0.60;;;31.60;52.00;;;;;;5017278;28;20045;-77
2022/06/18 09:17:42;;;;;;;1.02;0.60;;;31.70;50.80;;;;;;5013017;28;20494;-78
2022/06/18 09:20:14;;;;;;;2.13;0.55;;;31.80;53.30;;;;;;5013872;28;20026;-78
2022/06/18 09:22:50;;;;;;;1.35;0.68;;;31.90;50.80;;;;;;5013062;28;20022;-78
2022/06/18 09:25:18;;;;;;;1.20;0.50;;;32.10;50.70;;;;;;5012944;28;20026;-78
2022/06/18 09:27:52;;;;;;;2.10;0.45;;;32.10;50.50;;;;;;5013466;28;20038;-78
2022/06/18 09:30:23;;;;;;;1.10;0.40;;;32.30;51.00;;;;;;5013352;28;20026;-78
2022/06/18 09:32:54;;;;;;;0.68;0.40;;;32.30;51.20;;;;;;5013195;28;20034;-78
2022/06/18 09:35:35;;;;;;;4.57;0.60;;;32.40;50.60;;;;;;5012475;28;20079;-78
2022/06/18 09:38:31;;;;;;;1.27;0.60;;;32.50;50.40;;;;;;5013412;28;20045;-77
2022/06/18 09:40:59;;;;;;;1.98;0.77;;;32.50;50.40;;;;;;5012611;28;20026;-77
2022/06/18 09:43:42;;;;;;;1.98;0.60;;;32.60;51.60;;;;;;5013280;28;20053;-78
2022/06/18 09:46:33;;;;;;;2.53;0.60;;;32.70;51.30;;;;;;5012579;28;20091;-78
2022/06/18 09:48:59;;;;;;;1.58;0.50;;;32.90;50.70;;;;;;5013164;28;20026;-77
2022/06/18 09:51:54;;;;;;;2.65;0.50;;;32.90;51.00;;;;;;5027936;28;20029;-78
2022/06/18 09:54:21;;;;;;;4.43;0.80;;;33.00;52.20;;;;;;5013199;28;20049;-78
2022/06/18 09:56:52;;;;;;;3.65;0.50;;;33.10;51.10;;;;;;5017303;28;20112;-78
2022/06/18 09:59:46;;;;;;;0.90;0.50;;;33.30;50.90;;;;;;5030924;28;20112;-78
2022/06/18 10:02:19;;;;;;;0.70;0.60;;;33.20;51.40;;;;;;5033799;28;20120;-78
2022/06/18 10:07:35;;;;;;;2.92;1.13;;;33.30;51.20;;;;;;5032087;28;20075;-78
2022/06/18 10:10:17;;;;;;;1.15;0.60;;;33.40;50.60;;;;;;5032721;28;20056;-79
2022/06/18 10:12:53;;;;;;;9.52;0.70;;;33.50;52.40;;;;;;5032339;28;20040;-78
2022/06/18 10:15:20;;;;;;;1.67;0.55;;;33.60;50.10;;;;;;5031909;28;20036;-78
2022/06/18 10:18:17;;;;;;;1.23;0.73;;;33.70;51.30;;;;;;5032506;28;20028;-79
2022/06/18 10:21:12;;;;;;;2.42;0.80;;;33.80;50.10;;;;;;5031822;28;20025;-78
2022/06/18 10:23:53;;;;;;;3.58;0.98;;;33.80;51.40;;;;;;5031399;28;20041;-79
2022/06/18 10:26:51;;;;;;;3.23;1.00;;;33.80;49.60;;;;;;5031579;28;20494;-78
2022/06/18 10:29:39;;;;;;;4.97;1.10;;;33.80;50.50;;;;;;5034163;28;20557;-78
2022/06/18 10:32:20;;;;;;;5.45;1.20;;;33.80;49.10;;;;;;5032210;28;20113;-79
2022/06/18 10:35:19;;;;;;;6.10;0.85;;;33.80;48.10;;;;;;5031965;28;20108;-78
2022/06/18 10:38:05;;;;;;;4.97;0.70;;;33.80;48.20;;;;;;5031939;28;20558;-79
2022/06/18 10:40:48;;;;;;;2.53;1.00;;;33.80;49.80;;;;;;5032003;28;20056;-80
2022/06/18 10:43:28;;;;;;;5.72;1.00;;;33.70;49.50;;;;;;5031734;28;20037;-78
2022/06/18 10:46:01;;;;;;;3.97;0.77;;;33.70;49.10;;;;;;5031342;28;20037;-78
2022/06/18 10:48:30;;;;;;;1.80;0.73;;;33.80;49.20;;;;;;5031479;28;20030;-79
2022/06/18 10:50:57;;;;;;;3.47;0.68;;;33.80;48.40;;;;;;5022671;28;20057;-78
2022/06/18 10:53:27;;;;;;;4.38;0.95;;;33.80;48.90;;;;;;5011644;28;20116;-78
2022/06/18 10:56:00;;;;;;;5.97;1.30;;;33.70;49.00;;;;;;5011528;28;20022;-79
2022/06/18 10:58:27;;;;;;;5.55;0.77;;;33.80;49.00;;;;;;5011802;28;20395;-79
2022/06/18 11:01:02;;;;;;;2.35;0.90;;;33.90;49.70;;;;;;5011529;28;20044;-79
2022/06/18 11:03:33;;;;;;;3.95;1.13;;;34.10;49.70;;;;;;5011460;28;20034;-78
2022/06/18 11:06:10;;;;;;;3.28;1.23;;;34.10;49.40;;;;;;5011410;28;20029;-79
2022/06/18 11:08:36;;;;;;;3.97;0.88;;;34.20;49.00;;;;;;5010641;28;20437;-79
2022/06/18 11:11:14;;;;;;;10.02;1.30;;;34.20;50.20;;;;;;5009802;28;20033;-79
2022/06/18 11:13:44;;;;;;;7.80;0.98;;;34.20;50.80;;;;;;5011535;28;20036;-79
2022/06/18 11:16:28;;;;;;;7.53;0.93;;;34.40;49.40;;;;;;5010843;28;20052;-80
2022/06/18 11:18:59;;;;;;;5.57;0.90;;;34.50;49.20;;;;;;5011820;28;20030;-80
2022/06/18 11:21:40;;;;;;;4.60;1.03;;;34.70;49.00;;;;;;5010889;28;20033;-79
2022/06/18 11:24:14;;;;;;;7.78;1.15;;;34.80;49.20;;;;;;5011540;28;20067;-79
2022/06/18 11:27:02;;;;;;;3.42;1.00;;;34.90;47.80;;;;;;5010726;28;20033;-79
2022/06/18 11:29:45;;;;;;;2.17;1.00;;;34.90;48.40;;;;;;5011204;28;20034;-79
2022/06/18 11:32:22;;;;;;;4.88;0.90;;;35.00;49.40;;;;;;5010884;28;20037;-79
2022/06/18 11:35:17;;;;;;;3.80;1.13;;;35.20;49.30;;;;;;5010965;28;20128;-79
2022/06/18 11:37:43;;;;;;;4.25;1.17;;;35.40;46.90;;;;;;5010895;28;20413;-80
2022/06/18 11:40:11;;;;;;;5.82;1.60;;;35.50;47.40;;;;;;5011264;28;20057;-80
2022/06/18 11:42:52;;;;;;;6.95;0.88;;;35.60;48.30;;;;;;5010538;28;20026;-79
2022/06/18 11:45:43;;;;;;;8.13;1.02;;;35.60;46.60;;;;;;5010799;28;20026;-80
2022/06/18 11:48:32;;;;;;;4.25;1.33;;;35.70;46.60;;;;;;5010764;28;20041;-80
2022/06/18 11:51:13;;;;;;;4.55;1.25;;;35.60;46.20;;;;;;5011113;28;20169;-80
2022/06/18 11:53:53;;;;;;;3.67;1.10;;;35.50;48.50;;;;;;5011101;28;20088;-80
2022/06/18 11:56:50;;;;;;;5.82;0.90;;;35.40;47.10;;;;;;5010193;28;20372;-79
2022/06/18 11:59:26;;;;;;;5.47;1.30;;;35.40;47.30;;;;;;5010625;28;20029;-80
2022/06/18 12:02:16;;;;;;;6.57;1.25;;;35.40;48.60;;;;;;5010831;28;20023;-80
2022/06/18 12:05:12;;;;;;;3.63;0.90;;;35.50;47.50;;;;;;5010649;28;20045;-80
2022/06/18 12:07:49;;;;;;;6.70;1.73;;;35.50;47.30;;;;;;5009927;28;20045;-82
2022/06/18 12:10:18;;;;;;;6.97;1.70;;;35.60;46.10;;;;;;5010661;28;20033;-81
2022/06/18 12:13:04;;;;;;;4.00;1.30;;;35.60;47.00;;;;;;5010424;28;20057;-80
2022/06/18 12:15:41;;;;;;;6.57;1.20;;;35.60;46.30;;;;;;5009845;28;20022;-81
2022/06/18 12:18:35;;;;;;;4.00;0.98;;;35.70;47.50;;;;;;5011036;28;20033;-80
2022/06/18 12:21:32;;;;;;;3.70;0.98;;;35.90;46.20;;;;;;5010567;28;20441;-79
2022/06/18 12:24:37;;;;;;;2.78;1.25;;;35.90;46.80;;;;;;5013058;28;20117;-80
2022/06/18 12:27:11;;;;;;;7.32;1.70;;;35.90;47.20;;;;;;5010262;28;20034;-80
2022/06/18 12:29:45;;;;;;;4.80;1.25;;;35.90;46.70;;;;;;5010900;28;20172;-80
2022/06/18 12:32:41;;;;;;;5.70;1.23;;;35.90;46.80;;;;;;5010049;28;20076;-80
2022/06/18 12:35:43;;;;;;;4.38;0.90;;;35.80;47.10;;;;;;5010369;28;20057;-79
2022/06/18 12:38:14;;;;;;;6.95;1.90;;;35.70;46.20;;;;;;5010796;28;20064;-81
2022/06/18 12:41:07;;;;;;;7.72;1.33;;;35.70;47.20;;;;;;5010876;28;20065;-80
2022/06/18 12:44:01;;;;;;;7.10;2.22;;;35.80;46.70;;;;;;5008895;28;20128;-80
2022/06/18 12:46:48;;;;;;;5.13;1.40;;;35.90;46.30;;;;;;5024038;28;20036;-80
2022/06/18 12:49:45;;;;;;;2.80;1.10;;;35.90;48.10;;;;;;5014332;28;20100;-80
2022/06/18 12:52:26;;;;;;;5.43;1.83;;;36.00;47.50;;;;;;5013562;28;20041;-80
2022/06/18 12:55:04;;;;;;;3.53;1.38;;;36.00;46.70;;;;;;5014748;28;20038;-80
2022/06/18 12:57:32;;;;;;;3.70;1.08;;;36.10;47.70;;;;;;5013085;28;20034;-81
2022/06/18 13:00:19;;;;;;;6.60;1.52;;;36.10;48.20;;;;;;5014089;28;20057;-81
2022/06/18 13:03:02;;;;;;;8.95;1.40;;;36.20;47.30;;;;;;5013518;28;20071;-80
2022/06/18 13:05:47;;;;;;;3.95;0.98;;;36.40;45.90;;;;;;5013280;28;20100;-80
2022/06/18 13:08:43;;;;;;;6.43;1.45;;;36.50;45.90;;;;;;5013684;28;20152;-81
2022/06/18 13:11:25;;;;;;;6.22;1.50;;;36.60;46.30;;;;;;5014080;28;20487;-80
2022/06/18 13:14:04;;;;;;;8.50;1.08;;;36.60;46.80;;;;;;5014034;28;20025;-81
2022/06/18 13:16:38;;;;;;;7.85;1.83;;;36.70;46.50;;;;;;5013021;28;20057;-80
2022/06/18 13:19:13;;;;;;;6.57;1.30;;;36.50;46.70;;;;;;5013762;28;20550;-80
2022/06/18 13:21:39;;;;;;;5.07;1.42;;;36.50;46.20;;;;;;5012302;28;20087;-80
2022/06/18 13:30:24;;;;;;;6.78;1.73;;;36.50;46.50;;;;;;5013356;28;20116;-80
2022/06/18 13:33:03;;;;;;;9.15;1.42;;;36.50;46.40;;;;;;5013342;28;20033;-81
2022/06/18 13:35:47;;;;;;;7.72;1.30;;;36.60;46.90;;;;;;5027946;28;20033;-80